Fort Miller, New York
Current Conditions -  °F | °C
As of 11:53 PM on Saturday 25 Oct 2014 (Local Time) from KGFL Reporting Station
Few Clouds Few Clouds  
Wind Chill: 50°   Ceiling: Unl
Heat Index: 50°   Visibility: 10mi
Dew Point: 45°   Wind: 6mph
Humidity: 83%   Direction: 200°SSW
Pressure: 29.5"   Gusts: NA
Location:  43.23°N, 73.5588°W
Report Text: KGFL 260353Z AUTO 20005KT 10SM FEW039 10/07 A2950 RMK AO2 SLP992 T01000072
Loading
Personal Weather Stations






























Interactive Weather Map
Tropical Storm Tracking
New forecast layout! Learn more

10-Day Weather Forecast

Advertisements
Track Severe Weather on mobile